sensor_id;sensor_type;location;lat;lon;timestamp;pressure;altitude;pressure_sealevel;temperature;humidity
36520;BME280;40269;46.742;9.778;2023-02-19T00:01:11;86254.38;;;-4.86;54.35
36520;BME280;40269;46.742;9.778;2023-02-19T00:03:40;86257.84;;;-2.75;49.17
36520;BME280;40269;46.742;9.778;2023-02-19T00:06:09;86253.72;;;-4.83;53.80
36520;BME280;40269;46.742;9.778;2023-02-19T00:08:38;86257.78;;;-5.69;57.78
36520;BME280;40269;46.742;9.778;2023-02-19T00:11:07;86261.02;;;-6.10;60.79
36520;BME280;40269;46.742;9.778;2023-02-19T00:13:35;86252.42;;;-4.70;56.13
36520;BME280;40269;46.742;9.778;2023-02-19T00:16:05;86245.49;;;-3.13;50.54
36520;BME280;40269;46.742;9.778;2023-02-19T00:18:31;86249.08;;;-3.39;52.10
36520;BME280;40269;46.742;9.778;2023-02-19T00:20:58;86250.64;;;-3.82;52.11
36520;BME280;40269;46.742;9.778;2023-02-19T00:23:25;86247.93;;;-4.25;53.65
36520;BME280;40269;46.742;9.778;2023-02-19T00:25:53;86245.17;;;-5.44;55.89
36520;BME280;40269;46.742;9.778;2023-02-19T00:28:20;86250.77;;;-4.83;55.78
36520;BME280;40269;46.742;9.778;2023-02-19T00:30:47;86249.71;;;-3.05;51.18
36520;BME280;40269;46.742;9.778;2023-02-19T00:33:14;86247.16;;;-3.52;51.63
36520;BME280;40269;46.742;9.778;2023-02-19T00:35:41;86251.59;;;-4.13;52.21
36520;BME280;40269;46.742;9.778;2023-02-19T00:38:09;86252.25;;;-5.32;54.52
36520;BME280;40269;46.742;9.778;2023-02-19T00:40:37;86250.50;;;-4.29;52.04
36520;BME280;40269;46.742;9.778;2023-02-19T00:43:04;86245.55;;;-3.58;50.79
36520;BME280;40269;46.742;9.778;2023-02-19T00:45:31;86246.25;;;-2.69;49.44
36520;BME280;40269;46.742;9.778;2023-02-19T00:47:58;86246.84;;;-5.23;54.63
36520;BME280;40269;46.742;9.778;2023-02-19T00:50:25;86246.74;;;-4.64;53.37
36520;BME280;40269;46.742;9.778;2023-02-19T00:52:52;86249.18;;;-2.68;48.25
36520;BME280;40269;46.742;9.778;2023-02-19T00:55:19;86244.70;;;-4.30;51.94
36520;BME280;40269;46.742;9.778;2023-02-19T00:57:45;86247.48;;;-3.34;49.75
36520;BME280;40269;46.742;9.778;2023-02-19T01:00:13;86245.34;;;-3.23;50.10
36520;BME280;40269;46.742;9.778;2023-02-19T01:02:40;86245.99;;;-2.55;47.74
36520;BME280;40269;46.742;9.778;2023-02-19T01:05:07;86245.89;;;-4.18;50.88
36520;BME280;40269;46.742;9.778;2023-02-19T01:07:34;86241.34;;;-4.24;52.49
36520;BME280;40269;46.742;9.778;2023-02-19T01:10:03;86246.44;;;-6.61;58.52
36520;BME280;40269;46.742;9.778;2023-02-19T01:12:30;86244.38;;;-6.44;59.64
36520;BME280;40269;46.742;9.778;2023-02-19T01:14:57;86239.69;;;-5.41;55.66
36520;BME280;40269;46.742;9.778;2023-02-19T01:17:23;86239.64;;;-6.27;58.49
36520;BME280;40269;46.742;9.778;2023-02-19T01:19:51;86236.27;;;-5.98;57.80
36520;BME280;40269;46.742;9.778;2023-02-19T01:22:18;86238.93;;;-6.97;61.36
36520;BME280;40269;46.742;9.778;2023-02-19T01:24:45;86232.98;;;-5.44;56.75
36520;BME280;40269;46.742;9.778;2023-02-19T01:27:12;86228.79;;;-5.46;56.85
36520;BME280;40269;46.742;9.778;2023-02-19T01:29:39;86228.62;;;-5.13;55.17
36520;BME280;40269;46.742;9.778;2023-02-19T01:32:06;86223.85;;;-4.10;53.64
36520;BME280;40269;46.742;9.778;2023-02-19T01:34:33;86221.49;;;-3.77;50.57
36520;BME280;40269;46.742;9.778;2023-02-19T01:37:00;86218.44;;;-5.90;55.19
36520;BME280;40269;46.742;9.778;2023-02-19T01:39:26;86216.73;;;-6.01;56.79
36520;BME280;40269;46.742;9.778;2023-02-19T01:41:53;86218.12;;;-3.97;52.75
36520;BME280;40269;46.742;9.778;2023-02-19T01:45:27;86219.02;;;-2.38;47.50
36520;BME280;40269;46.742;9.778;2023-02-19T01:48:00;86216.31;;;-3.34;48.88
36520;BME280;40269;46.742;9.778;2023-02-19T01:50:31;86215.38;;;-1.63;45.39
36520;BME280;40269;46.742;9.778;2023-02-19T01:53:02;86212.05;;;-3.10;47.62
36520;BME280;40269;46.742;9.778;2023-02-19T01:55:31;86205.18;;;-4.61;50.80
36520;BME280;40269;46.742;9.778;2023-02-19T01:57:59;86202.60;;;-5.93;54.71
36520;BME280;40269;46.742;9.778;2023-02-19T02:00:27;86201.22;;;-6.16;55.58
36520;BME280;40269;46.742;9.778;2023-02-19T02:02:55;86197.46;;;-5.45;55.35
36520;BME280;40269;46.742;9.778;2023-02-19T02:05:36;86193.22;;;-4.87;52.76
36520;BME280;40269;46.742;9.778;2023-02-19T02:08:08;86195.12;;;-5.49;52.56
36520;BME280;40269;46.742;9.778;2023-02-19T02:10:34;86195.76;;;-6.34;56.19
36520;BME280;40269;46.742;9.778;2023-02-19T02:13:01;86186.69;;;-5.33;53.42
36520;BME280;40269;46.742;9.778;2023-02-19T02:15:37;86183.23;;;-3.97;50.78
36520;BME280;40269;46.742;9.778;2023-02-19T02:18:12;86181.54;;;-4.93;52.55
36520;BME280;40269;46.742;9.778;2023-02-19T02:20:57;86177.33;;;-4.68;53.19
36520;BME280;40269;46.742;9.778;2023-02-19T02:23:39;86175.62;;;-5.18;54.20
36520;BME280;40269;46.742;9.778;2023-02-19T02:26:17;86172.80;;;-5.19;54.01
36520;BME280;40269;46.742;9.778;2023-02-19T02:29:20;86177.06;;;-6.01;56.32
36520;BME280;40269;46.742;9.778;2023-02-19T02:31:55;86174.55;;;-5.81;55.33
36520;BME280;40269;46.742;9.778;2023-02-19T02:34:28;86175.84;;;-4.66;51.42
36520;BME280;40269;46.742;9.778;2023-02-19T02:36:56;86174.61;;;-3.59;49.87
36520;BME280;40269;46.742;9.778;2023-02-19T02:39:25;86167.78;;;-5.22;53.69
36520;BME280;40269;46.742;9.778;2023-02-19T02:41:55;86165.33;;;-5.79;54.52
36520;BME280;40269;46.742;9.778;2023-02-19T02:44:33;86179.46;;;-6.98;58.99
36520;BME280;40269;46.742;9.778;2023-02-19T02:47:03;86169.06;;;-5.24;53.99
36520;BME280;40269;46.742;9.778;2023-02-19T02:49:33;86166.19;;;-4.45;51.94
36520;BME280;40269;46.742;9.778;2023-02-19T02:52:01;86162.44;;;-4.78;52.30
36520;BME280;40269;46.742;9.778;2023-02-19T02:54:31;86162.49;;;-5.39;55.18
36520;BME280;40269;46.742;9.778;2023-02-19T02:57:00;86157.76;;;-3.84;51.42
36520;BME280;40269;46.742;9.778;2023-02-19T02:59:30;86161.62;;;-3.56;49.88
36520;BME280;40269;46.742;9.778;2023-02-19T03:02:01;86160.22;;;-1.58;45.72
36520;BME280;40269;46.742;9.778;2023-02-19T03:04:32;86155.29;;;-4.30;51.03
36520;BME280;40269;46.742;9.778;2023-02-19T03:07:05;86155.94;;;-3.13;48.85
36520;BME280;40269;46.742;9.778;2023-02-19T03:09:37;86155.52;;;-2.28;45.99
36520;BME280;40269;46.742;9.778;2023-02-19T03:12:10;86159.08;;;-4.19;49.69
36520;BME280;40269;46.742;9.778;2023-02-19T03:14:42;86149.72;;;-1.43;43.86
36520;BME280;40269;46.742;9.778;2023-02-19T03:17:15;86145.94;;;-1.00;43.19
36520;BME280;40269;46.742;9.778;2023-02-19T03:19:48;86147.66;;;-3.53;47.49
36520;BME280;40269;46.742;9.778;2023-02-19T03:22:18;86151.01;;;-4.08;48.69
36520;BME280;40269;46.742;9.778;2023-02-19T03:24:51;86147.92;;;-4.39;48.79
36520;BME280;40269;46.742;9.778;2023-02-19T03:27:21;86147.69;;;-5.13;51.30
36520;BME280;40269;46.742;9.778;2023-02-19T03:29:54;86142.28;;;-5.30;52.48
36520;BME280;40269;46.742;9.778;2023-02-19T03:32:27;86142.34;;;-4.03;50.08
36520;BME280;40269;46.742;9.778;2023-02-19T03:34:58;86142.74;;;-5.93;54.54
36520;BME280;40269;46.742;9.778;2023-02-19T03:37:29;86143.62;;;-5.66;54.34
36520;BME280;40269;46.742;9.778;2023-02-19T03:39:58;86145.90;;;-5.91;55.29
36520;BME280;40269;46.742;9.778;2023-02-19T03:42:34;86143.74;;;-3.10;48.58
36520;BME280;40269;46.742;9.778;2023-02-19T03:45:15;86139.26;;;-3.39;48.59
36520;BME280;40269;46.742;9.778;2023-02-19T03:47:51;86133.55;;;-1.58;44.49
36520;BME280;40269;46.742;9.778;2023-02-19T03:50:28;86129.08;;;-3.71;47.78
36520;BME280;40269;46.742;9.778;2023-02-19T03:53:02;86122.39;;;-3.47;47.78
36520;BME280;40269;46.742;9.778;2023-02-19T03:55:36;86126.05;;;-6.16;56.31
36520;BME280;40269;46.742;9.778;2023-02-19T03:58:10;86112.23;;;-4.30;52.07
36520;BME280;40269;46.742;9.778;2023-02-19T04:00:47;86111.75;;;-5.28;53.64
36520;BME280;40269;46.742;9.778;2023-02-19T04:03:21;86116.09;;;-4.12;50.34
36520;BME280;40269;46.742;9.778;2023-02-19T04:05:57;86121.89;;;-2.93;47.72
36520;BME280;40269;46.742;9.778;2023-02-19T04:08:27;86125.36;;;-2.47;45.68
36520;BME280;40269;46.742;9.778;2023-02-19T04:10:57;86118.52;;;-3.47;47.38
36520;BME280;40269;46.742;9.778;2023-02-19T04:13:29;86114.87;;;-5.06;51.53
36520;BME280;40269;46.742;9.778;2023-02-19T04:16:05;86112.90;;;-4.88;51.15
36520;BME280;40269;46.742;9.778;2023-02-19T04:18:36;86105.05;;;-3.50;47.92
36520;BME280;40269;46.742;9.778;2023-02-19T04:21:05;86095.48;;;-1.84;44.18
36520;BME280;40269;46.742;9.778;2023-02-19T04:23:36;86103.34;;;-4.82;50.19
36520;BME280;40269;46.742;9.778;2023-02-19T04:26:05;86106.29;;;-3.68;48.28
36520;BME280;40269;46.742;9.778;2023-02-19T04:28:33;86105.64;;;-5.36;52.55
36520;BME280;40269;46.742;9.778;2023-02-19T04:31:00;86113.96;;;-6.61;56.98
36520;BME280;40269;46.742;9.778;2023-02-19T04:33:28;86114.38;;;-6.17;56.40
36520;BME280;40269;46.742;9.778;2023-02-19T04:35:55;86113.34;;;-5.71;55.65
36520;BME280;40269;46.742;9.778;2023-02-19T04:38:22;86112.78;;;-4.90;51.87
36520;BME280;40269;46.742;9.778;2023-02-19T04:40:48;86111.89;;;-4.29;50.57
36520;BME280;40269;46.742;9.778;2023-02-19T04:43:15;86110.66;;;-4.70;51.07
36520;BME280;40269;46.742;9.778;2023-02-19T04:45:42;86118.16;;;-3.85;49.38
36520;BME280;40269;46.742;9.778;2023-02-19T04:48:09;86117.22;;;-4.95;51.41
36520;BME280;40269;46.742;9.778;2023-02-19T04:50:37;86108.70;;;-2.50;45.86
36520;BME280;40269;46.742;9.778;2023-02-19T04:53:03;86095.61;;;-1.04;43.18
36520;BME280;40269;46.742;9.778;2023-02-19T04:55:30;86096.56;;;-1.76;42.67
36520;BME280;40269;46.742;9.778;2023-02-19T04:57:57;86104.43;;;-5.28;52.74
36520;BME280;40269;46.742;9.778;2023-02-19T05:00:24;86103.81;;;-5.39;53.36
36520;BME280;40269;46.742;9.778;2023-02-19T05:02:50;86104.71;;;-4.40;51.10
36520;BME280;40269;46.742;9.778;2023-02-19T05:05:17;86109.07;;;-5.63;53.55
36520;BME280;40269;46.742;9.778;2023-02-19T05:07:44;86111.21;;;-5.30;53.83
36520;BME280;40269;46.742;9.778;2023-02-19T05:10:11;86111.54;;;-5.80;54.90
36520;BME280;40269;46.742;9.778;2023-02-19T05:12:38;86109.74;;;-4.98;52.43
36520;BME280;40269;46.742;9.778;2023-02-19T05:15:05;86099.32;;;-5.80;54.67
36520;BME280;40269;46.742;9.778;2023-02-19T05:17:33;86092.04;;;-4.25;51.11
36520;BME280;40269;46.742;9.778;2023-02-19T05:20:00;86093.79;;;-4.06;50.51
36520;BME280;40269;46.742;9.778;2023-02-19T05:22:28;86103.64;;;-6.35;56.84
36520;BME280;40269;46.742;9.778;2023-02-19T05:24:55;86093.19;;;-4.11;51.63
36520;BME280;40269;46.742;9.778;2023-02-19T05:27:22;86086.26;;;-4.95;52.30
36520;BME280;40269;46.742;9.778;2023-02-19T05:29:49;86095.11;;;-2.72;47.80
36520;BME280;40269;46.742;9.778;2023-02-19T05:32:16;86110.28;;;-1.10;43.73
36520;BME280;40269;46.742;9.778;2023-02-19T05:34:43;86104.38;;;-1.71;44.20
36520;BME280;40269;46.742;9.778;2023-02-19T05:37:09;86109.09;;;-2.05;44.52
36520;BME280;40269;46.742;9.778;2023-02-19T05:39:36;86108.59;;;-4.33;50.03
36520;BME280;40269;46.742;9.778;2023-02-19T05:42:03;86097.13;;;-2.89;46.35
36520;BME280;40269;46.742;9.778;2023-02-19T05:44:30;86092.82;;;-2.50;45.37
36520;BME280;40269;46.742;9.778;2023-02-19T05:46:57;86065.62;;;-3.52;48.36
36520;BME280;40269;46.742;9.778;2023-02-19T05:49:23;86056.98;;;-3.58;47.15
36520;BME280;40269;46.742;9.778;2023-02-19T05:51:50;86053.47;;;-5.62;52.61
36520;BME280;40269;46.742;9.778;2023-02-19T05:54:17;86047.38;;;-3.72;49.07
36520;BME280;40269;46.742;9.778;2023-02-19T05:56:44;86045.97;;;-3.46;47.92
36520;BME280;40269;46.742;9.778;2023-02-19T05:59:15;86047.25;;;-3.94;48.77
36520;BME280;40269;46.742;9.778;2023-02-19T06:01:43;86041.62;;;-3.55;49.34
36520;BME280;40269;46.742;9.778;2023-02-19T06:04:12;86036.25;;;-2.95;46.85
36520;BME280;40269;46.742;9.778;2023-02-19T06:06:40;86035.36;;;-6.05;54.86
36520;BME280;40269;46.742;9.778;2023-02-19T06:09:07;86034.99;;;-5.56;53.69
36520;BME280;40269;46.742;9.778;2023-02-19T06:11:35;86053.16;;;-6.28;56.87
36520;BME280;40269;46.742;9.778;2023-02-19T06:14:03;86054.68;;;-5.54;54.43
36520;BME280;40269;46.742;9.778;2023-02-19T06:16:30;86054.14;;;-5.40;53.67
36520;BME280;40269;46.742;9.778;2023-02-19T06:18:57;86060.22;;;-2.71;47.98
36520;BME280;40269;46.742;9.778;2023-02-19T06:21:24;86062.74;;;-4.09;50.18
36520;BME280;40269;46.742;9.778;2023-02-19T06:23:51;86053.06;;;-4.84;51.55
36520;BME280;40269;46.742;9.778;2023-02-19T06:26:20;86070.46;;;-4.34;50.88
36520;BME280;40269;46.742;9.778;2023-02-19T06:28:49;86063.41;;;-3.13;48.58
36520;BME280;40269;46.742;9.778;2023-02-19T06:31:18;86065.10;;;-4.54;51.41
36520;BME280;40269;46.742;9.778;2023-02-19T06:33:45;86055.15;;;-1.82;45.75
36520;BME280;40269;46.742;9.778;2023-02-19T06:36:14;86055.52;;;-2.93;46.88
36520;BME280;40269;46.742;9.778;2023-02-19T06:38:42;86066.17;;;-4.95;50.80
36520;BME280;40269;46.742;9.778;2023-02-19T06:41:11;86070.13;;;-3.60;48.98
36520;BME280;40269;46.742;9.778;2023-02-19T06:43:38;86073.96;;;-4.97;52.26
36520;BME280;40269;46.742;9.778;2023-02-19T06:46:06;86083.53;;;-4.80;52.46
36520;BME280;40269;46.742;9.778;2023-02-19T06:48:34;86097.06;;;-3.91;50.10
36520;BME280;40269;46.742;9.778;2023-02-19T06:51:02;86090.86;;;-4.27;52.27
36520;BME280;40269;46.742;9.778;2023-02-19T06:53:29;86096.74;;;-2.16;47.59
36520;BME280;40269;46.742;9.778;2023-02-19T06:55:57;86095.79;;;-1.97;45.85
36520;BME280;40269;46.742;9.778;2023-02-19T06:58:24;86100.41;;;-2.71;46.32
36520;BME280;40269;46.742;9.778;2023-02-19T07:00:52;86100.58;;;-3.38;48.56
36520;BME280;40269;46.742;9.778;2023-02-19T07:03:19;86112.41;;;-2.52;47.31
36520;BME280;40269;46.742;9.778;2023-02-19T07:05:47;86124.77;;;-3.39;48.91
36520;BME280;40269;46.742;9.778;2023-02-19T07:08:14;86121.93;;;-2.29;46.78
36520;BME280;40269;46.742;9.778;2023-02-19T07:10:41;86134.53;;;-2.05;46.78
36520;BME280;40269;46.742;9.778;2023-02-19T07:13:09;86146.44;;;-2.78;47.94
36520;BME280;40269;46.742;9.778;2023-02-19T07:15:35;86146.60;;;-2.30;46.34
36520;BME280;40269;46.742;9.778;2023-02-19T07:18:03;86141.61;;;-2.22;47.29
36520;BME280;40269;46.742;9.778;2023-02-19T07:20:30;86140.87;;;-3.89;50.89
36520;BME280;40269;46.742;9.778;2023-02-19T07:22:56;86144.24;;;-2.90;50.10
36520;BME280;40269;46.742;9.778;2023-02-19T07:25:23;86145.13;;;-1.86;47.64
36520;BME280;40269;46.742;9.778;2023-02-19T07:27:50;86144.08;;;-2.20;47.54
36520;BME280;40269;46.742;9.778;2023-02-19T07:30:17;86144.72;;;-3.31;49.97
36520;BME280;40269;46.742;9.778;2023-02-19T07:32:43;86143.65;;;-2.96;49.93
36520;BME280;40269;46.742;9.778;2023-02-19T07:35:10;86145.32;;;-2.41;46.59
36520;BME280;40269;46.742;9.778;2023-02-19T07:37:39;86131.74;;;-0.02;42.45
36520;BME280;40269;46.742;9.778;2023-02-19T07:40:07;86130.08;;;0.25;41.28
36520;BME280;40269;46.742;9.778;2023-02-19T07:42:34;86133.57;;;-0.28;42.36
36520;BME280;40269;46.742;9.778;2023-02-19T07:45:01;86137.17;;;-0.79;43.87
36520;BME280;40269;46.742;9.778;2023-02-19T07:47:29;86138.08;;;-0.01;42.03
36520;BME280;40269;46.742;9.778;2023-02-19T07:49:55;86143.18;;;-1.76;45.31
36520;BME280;40269;46.742;9.778;2023-02-19T07:52:23;86135.97;;;0.94;40.79
36520;BME280;40269;46.742;9.778;2023-02-19T07:54:50;86133.41;;;1.27;39.77
36520;BME280;40269;46.742;9.778;2023-02-19T07:57:17;86132.30;;;-0.33;41.86
36520;BME280;40269;46.742;9.778;2023-02-19T07:59:43;86132.65;;;2.34;38.30
36520;BME280;40269;46.742;9.778;2023-02-19T08:02:14;86130.40;;;-0.75;43.38
36520;BME280;40269;46.742;9.778;2023-02-19T08:04:42;86136.38;;;0.21;41.97
36520;BME280;40269;46.742;9.778;2023-02-19T08:07:09;86140.45;;;-0.97;44.26
36520;BME280;40269;46.742;9.778;2023-02-19T08:09:36;86136.26;;;-0.90;44.57
36520;BME280;40269;46.742;9.778;2023-02-19T08:12:03;86135.24;;;-0.59;45.06
36520;BME280;40269;46.742;9.778;2023-02-19T08:14:30;86142.37;;;0.63;41.66
36520;BME280;40269;46.742;9.778;2023-02-19T08:16:57;86143.87;;;2.53;38.00
36520;BME280;40269;46.742;9.778;2023-02-19T08:19:24;86143.82;;;0.80;42.11
36520;BME280;40269;46.742;9.778;2023-02-19T08:21:51;86149.43;;;-0.59;44.61
36520;BME280;40269;46.742;9.778;2023-02-19T08:24:18;86150.25;;;-0.13;44.74
36520;BME280;40269;46.742;9.778;2023-02-19T08:26:44;86161.26;;;2.06;40.56
36520;BME280;40269;46.742;9.778;2023-02-19T08:29:12;86167.55;;;1.64;39.60
36520;BME280;40269;46.742;9.778;2023-02-19T08:31:39;86163.71;;;2.57;38.45
36520;BME280;40269;46.742;9.778;2023-02-19T08:34:06;86165.79;;;2.86;38.03
36520;BME280;40269;46.742;9.778;2023-02-19T08:36:33;86166.13;;;3.23;38.58
36520;BME280;40269;46.742;9.778;2023-02-19T08:39:00;86163.87;;;2.41;39.37
36520;BME280;40269;46.742;9.778;2023-02-19T08:41:27;86158.51;;;0.73;41.13
36520;BME280;40269;46.742;9.778;2023-02-19T08:43:54;86158.77;;;2.08;39.30
36520;BME280;40269;46.742;9.778;2023-02-19T08:46:20;86152.45;;;2.16;39.21
36520;BME280;40269;46.742;9.778;2023-02-19T08:48:47;86148.13;;;0.55;42.78
36520;BME280;40269;46.742;9.778;2023-02-19T08:51:14;86147.06;;;-1.72;49.54
36520;BME280;40269;46.742;9.778;2023-02-19T08:53:41;86148.90;;;1.01;42.59
36520;BME280;40269;46.742;9.778;2023-02-19T08:56:09;86145.33;;;-0.70;45.86
36520;BME280;40269;46.742;9.778;2023-02-19T08:58:37;86145.92;;;-0.53;45.60
36520;BME280;40269;46.742;9.778;2023-02-19T09:01:07;86152.60;;;0.56;42.70
36520;BME280;40269;46.742;9.778;2023-02-19T09:03:34;86151.97;;;2.45;39.63
36520;BME280;40269;46.742;9.778;2023-02-19T09:06:01;86148.11;;;4.05;34.55
36520;BME280;40269;46.742;9.778;2023-02-19T09:08:28;86146.42;;;5.70;33.15
36520;BME280;40269;46.742;9.778;2023-02-19T09:10:58;86149.83;;;4.84;34.09
36520;BME280;40269;46.742;9.778;2023-02-19T09:13:25;86150.60;;;5.46;32.31
36520;BME280;40269;46.742;9.778;2023-02-19T09:15:52;86152.03;;;6.12;32.86
36520;BME280;40269;46.742;9.778;2023-02-19T09:18:20;86149.58;;;7.06;30.98
36520;BME280;40269;46.742;9.778;2023-02-19T09:20:47;86154.55;;;6.91;31.27
36520;BME280;40269;46.742;9.778;2023-02-19T09:23:14;86153.03;;;6.42;32.58
36520;BME280;40269;46.742;9.778;2023-02-19T09:25:42;86145.84;;;4.62;36.06
36520;BME280;40269;46.742;9.778;2023-02-19T09:28:09;86147.95;;;6.38;31.67
36520;BME280;40269;46.742;9.778;2023-02-19T09:30:36;86148.90;;;6.65;31.93
36520;BME280;40269;46.742;9.778;2023-02-19T09:33:04;86153.74;;;7.60;30.37
36520;BME280;40269;46.742;9.778;2023-02-19T09:35:31;86152.82;;;8.94;28.27
36520;BME280;40269;46.742;9.778;2023-02-19T09:37:58;86156.08;;;6.33;29.91
36520;BME280;40269;46.742;9.778;2023-02-19T09:40:25;86157.04;;;6.15;32.23
36520;BME280;40269;46.742;9.778;2023-02-19T09:42:53;86159.27;;;8.09;29.52
36520;BME280;40269;46.742;9.778;2023-02-19T09:45:22;86160.70;;;7.91;28.79
36520;BME280;40269;46.742;9.778;2023-02-19T09:47:53;86160.54;;;6.88;32.00
36520;BME280;40269;46.742;9.778;2023-02-19T09:50:26;86150.29;;;9.00;28.47
36520;BME280;40269;46.742;9.778;2023-02-19T09:52:59;86155.03;;;8.78;28.70
36520;BME280;40269;46.742;9.778;2023-02-19T09:55:30;86153.80;;;7.93;31.87
36520;BME280;40269;46.742;9.778;2023-02-19T09:58:00;86157.27;;;8.21;31.17
36520;BME280;40269;46.742;9.778;2023-02-19T10:00:30;86156.68;;;7.85;30.40
36520;BME280;40269;46.742;9.778;2023-02-19T10:03:03;86153.29;;;9.30;27.73
36520;BME280;40269;46.742;9.778;2023-02-19T10:05:31;86153.70;;;8.88;29.38
36520;BME280;40269;46.742;9.778;2023-02-19T10:07:59;86153.21;;;8.73;27.60
36520;BME280;40269;46.742;9.778;2023-02-19T10:10:31;86148.02;;;9.81;29.08
36520;BME280;40269;46.742;9.778;2023-02-19T10:13:11;86144.01;;;10.63;26.46
36520;BME280;40269;46.742;9.778;2023-02-19T10:15:44;86146.95;;;10.71;25.98
36520;BME280;40269;46.742;9.778;2023-02-19T10:18:12;86148.31;;;10.16;26.90
36520;BME280;40269;46.742;9.778;2023-02-19T10:20:41;86150.89;;;11.73;24.26
36520;BME280;40269;46.742;9.778;2023-02-19T10:23:10;86150.04;;;13.44;23.97
36520;BME280;40269;46.742;9.778;2023-02-19T10:25:44;86146.46;;;12.62;26.57
36520;BME280;40269;46.742;9.778;2023-02-19T10:28:14;86144.11;;;11.83;26.18
36520;BME280;40269;46.742;9.778;2023-02-19T10:30:42;86145.21;;;13.35;24.30
36520;BME280;40269;46.742;9.778;2023-02-19T10:33:12;86148.00;;;14.06;23.23
36520;BME280;40269;46.742;9.778;2023-02-19T10:35:52;86147.89;;;12.94;22.62
36520;BME280;40269;46.742;9.778;2023-02-19T10:38:21;86144.54;;;14.50;22.19
36520;BME280;40269;46.742;9.778;2023-02-19T10:40:51;86143.08;;;13.61;22.16
36520;BME280;40269;46.742;9.778;2023-02-19T10:43:26;86148.93;;;12.75;25.16
36520;BME280;40269;46.742;9.778;2023-02-19T10:45:54;86152.51;;;13.98;23.55
36520;BME280;40269;46.742;9.778;2023-02-19T10:48:23;86151.58;;;13.49;23.59
36520;BME280;40269;46.742;9.778;2023-02-19T10:50:52;86154.51;;;15.49;22.31
36520;BME280;40269;46.742;9.778;2023-02-19T10:53:22;86145.89;;;16.31;20.54
36520;BME280;40269;46.742;9.778;2023-02-19T10:56:05;86142.70;;;16.34;22.06
36520;BME280;40269;46.742;9.778;2023-02-19T10:58:33;86145.09;;;16.43;20.39
36520;BME280;40269;46.742;9.778;2023-02-19T11:01:18;86148.12;;;16.43;21.11
36520;BME280;40269;46.742;9.778;2023-02-19T11:03:47;86146.13;;;16.12;22.39
36520;BME280;40269;46.742;9.778;2023-02-19T11:06:15;86144.95;;;14.50;22.84
36520;BME280;40269;46.742;9.778;2023-02-19T11:08:51;86140.71;;;14.05;21.08
36520;BME280;40269;46.742;9.778;2023-02-19T11:11:25;86140.56;;;13.12;24.01
36520;BME280;40269;46.742;9.778;2023-02-19T11:13:54;86142.86;;;15.17;21.23
36520;BME280;40269;46.742;9.778;2023-02-19T11:16:22;86136.44;;;12.93;24.64
36520;BME280;40269;46.742;9.778;2023-02-19T11:18:53;86139.20;;;14.00;23.12
36520;BME280;40269;46.742;9.778;2023-02-19T11:21:25;86137.26;;;13.42;24.84
36520;BME280;40269;46.742;9.778;2023-02-19T11:23:52;86137.34;;;15.65;23.33
36520;BME280;40269;46.742;9.778;2023-02-19T11:26:24;86132.05;;;14.68;22.38
36520;BME280;40269;46.742;9.778;2023-02-19T11:28:55;86131.00;;;15.33;23.67
36520;BME280;40269;46.742;9.778;2023-02-19T11:31:25;86129.09;;;14.42;21.61
36520;BME280;40269;46.742;9.778;2023-02-19T11:33:55;86127.83;;;15.28;21.92
36520;BME280;40269;46.742;9.778;2023-02-19T11:36:27;86122.00;;;15.80;20.46
36520;BME280;40269;46.742;9.778;2023-02-19T11:38:55;86123.08;;;14.24;21.72
36520;BME280;40269;46.742;9.778;2023-02-19T11:41:35;86121.25;;;16.09;20.39
36520;BME280;40269;46.742;9.778;2023-02-19T11:44:18;86118.27;;;14.25;21.73
36520;BME280;40269;46.742;9.778;2023-02-19T11:46:58;86121.70;;;16.90;19.83
36520;BME280;40269;46.742;9.778;2023-02-19T11:49:38;86122.76;;;14.48;20.48
36520;BME280;40269;46.742;9.778;2023-02-19T11:52:20;86123.84;;;15.96;20.29
36520;BME280;40269;46.742;9.778;2023-02-19T11:54:51;86121.64;;;15.89;21.26
36520;BME280;40269;46.742;9.778;2023-02-19T11:57:31;86114.45;;;15.38;21.17
36520;BME280;40269;46.742;9.778;2023-02-19T12:00:16;86116.57;;;16.12;21.91
36520;BME280;40269;46.742;9.778;2023-02-19T12:02:54;86111.66;;;16.99;18.64
36520;BME280;40269;46.742;9.778;2023-02-19T12:05:34;86106.95;;;16.65;20.43
36520;BME280;40269;46.742;9.778;2023-02-19T12:08:20;86108.82;;;16.98;20.51
36520;BME280;40269;46.742;9.778;2023-02-19T12:11:02;86105.71;;;14.09;20.77
36520;BME280;40269;46.742;9.778;2023-02-19T12:13:50;86106.07;;;15.20;19.38
36520;BME280;40269;46.742;9.778;2023-02-19T12:16:25;86110.61;;;17.86;19.94
36520;BME280;40269;46.742;9.778;2023-02-19T12:19:06;86111.79;;;18.29;18.18
36520;BME280;40269;46.742;9.778;2023-02-19T12:21:47;86113.83;;;18.19;17.99
36520;BME280;40269;46.742;9.778;2023-02-19T12:24:35;86115.81;;;15.53;20.13
36520;BME280;40269;46.742;9.778;2023-02-19T12:27:19;86116.74;;;17.66;19.24
36520;BME280;40269;46.742;9.778;2023-02-19T12:30:02;86111.30;;;18.75;15.95
36520;BME280;40269;46.742;9.778;2023-02-19T12:32:52;86104.28;;;18.38;16.90
36520;BME280;40269;46.742;9.778;2023-02-19T12:35:35;86109.37;;;16.66;17.95
36520;BME280;40269;46.742;9.778;2023-02-19T12:38:18;86107.79;;;17.08;19.00
36520;BME280;40269;46.742;9.778;2023-02-19T12:40:57;86107.72;;;18.53;19.95
36520;BME280;40269;46.742;9.778;2023-02-19T12:43:28;86103.34;;;18.93;15.51
36520;BME280;40269;46.742;9.778;2023-02-19T12:46:00;86094.61;;;18.98;16.61
36520;BME280;40269;46.742;9.778;2023-02-19T12:48:32;86094.15;;;20.06;15.86
36520;BME280;40269;46.742;9.778;2023-02-19T12:51:05;86094.20;;;20.98;15.96
36520;BME280;40269;46.742;9.778;2023-02-19T12:53:39;86089.17;;;20.00;15.25
36520;BME280;40269;46.742;9.778;2023-02-19T12:56:12;86092.66;;;17.88;16.35
36520;BME280;40269;46.742;9.778;2023-02-19T12:58:44;86093.27;;;21.45;15.74
36520;BME280;40269;46.742;9.778;2023-02-19T13:01:17;86092.46;;;21.31;14.26
36520;BME280;40269;46.742;9.778;2023-02-19T13:03:49;86085.25;;;19.64;20.78
36520;BME280;40269;46.742;9.778;2023-02-19T13:06:25;86085.44;;;22.00;15.08
36520;BME280;40269;46.742;9.778;2023-02-19T13:08:59;86090.34;;;22.46;14.54
36520;BME280;40269;46.742;9.778;2023-02-19T13:11:33;86092.79;;;18.73;15.53
36520;BME280;40269;46.742;9.778;2023-02-19T13:14:08;86091.67;;;21.35;16.90
36520;BME280;40269;46.742;9.778;2023-02-19T13:16:40;86087.96;;;21.77;15.38
36520;BME280;40269;46.742;9.778;2023-02-19T13:19:10;86091.25;;;21.03;14.27